Time;durP1;ratioP1;P1;durP2;ratioP2;P2;SDS_P1;SDS_P2;PMS_P1;PMS_P2;Temp;Humidity;BMP_temperature;BMP_pressure;BME280_temperature;BME280_humidity;BME280_pressure;Samples;Min_cycle;Max_cycle;Signal;HPM_P1;HPM_P2
2022/07/20 05:27:04;;;;;;;8.98;5.25;;;26.30;99.90;;;;;;4908920;29;20253;-69
2022/07/20 05:29:31;;;;;;;11.55;6.20;;;26.70;99.90;;;;;;4900016;29;20217;-68
2022/07/20 05:31:57;;;;;;;9.75;5.80;;;27.00;99.90;;;;;;4899807;29;20237;-69
2022/07/20 05:34:24;;;;;;;9.20;5.72;;;27.30;99.90;;;;;;4900029;29;20669;-67
2022/07/20 05:36:52;;;;;;;9.52;5.63;;;26.90;99.90;;;;;;4900053;29;20220;-68
2022/07/20 05:39:18;;;;;;;7.43;5.50;;;26.70;99.90;;;;;;4900315;29;20215;-69
2022/07/20 05:41:47;;;;;;;10.63;5.78;;;26.70;99.90;;;;;;4899814;29;20231;-68
2022/07/20 05:44:15;;;;;;;8.57;4.90;;;26.90;99.90;;;;;;4899954;29;20210;-70
2022/07/20 05:46:42;;;;;;;10.00;5.35;;;27.40;99.90;;;;;;4900001;29;20214;-68
2022/07/20 05:49:09;;;;;;;7.97;5.68;;;27.50;99.90;;;;;;4899703;29;20220;-69
2022/07/20 05:51:36;;;;;;;9.93;5.50;;;27.50;99.90;;;;;;4900020;29;20326;-69
2022/07/20 05:54:03;;;;;;;7.63;4.93;;;27.70;99.90;;;;;;4899898;29;20214;-69
2022/07/20 05:56:30;;;;;;;6.93;5.00;;;27.30;99.90;;;;;;4899606;29;20601;-70
2022/07/20 05:58:57;;;;;;;6.70;4.55;;;27.10;99.90;;;;;;4899861;29;20218;-69
2022/07/20 06:01:25;;;;;;;7.03;5.05;;;26.70;99.90;;;;;;4899643;29;20232;-70
2022/07/20 06:03:52;;;;;;;9.32;4.80;;;26.70;99.90;;;;;;4899194;29;20210;-69
2022/07/20 06:06:18;;;;;;;8.98;4.63;;;26.80;99.90;;;;;;4899560;29;20206;-69
2022/07/20 06:08:45;;;;;;;8.55;5.18;;;26.90;99.90;;;;;;4899388;29;20210;-68
2022/07/20 06:11:12;;;;;;;7.75;5.32;;;26.80;99.90;;;;;;4899359;29;20230;-69
2022/07/20 06:13:39;;;;;;;8.63;4.85;;;26.40;99.90;;;;;;4899489;29;20245;-68
2022/07/20 06:16:06;;;;;;;7.57;4.32;;;26.50;99.90;;;;;;4899192;29;20597;-69
2022/07/20 06:18:34;;;;;;;6.65;4.35;;;26.50;99.90;;;;;;4913463;29;20253;-71
2022/07/20 06:21:01;;;;;;;9.95;4.60;;;26.60;99.90;;;;;;4917689;29;20210;-69
2022/07/20 06:23:28;;;;;;;8.57;4.82;;;26.70;99.90;;;;;;4917773;29;20202;-69
2022/07/20 06:25:55;;;;;;;8.75;4.05;;;26.40;99.90;;;;;;4917606;29;20218;-69
2022/07/20 06:28:22;;;;;;;8.18;4.60;;;26.20;99.90;;;;;;4917394;29;20206;-69
2022/07/20 06:30:49;;;;;;;6.47;4.18;;;25.80;99.90;;;;;;4917371;29;20304;-70
2022/07/20 06:33:15;;;;;;;9.07;5.13;;;25.80;99.90;;;;;;4918078;29;20210;-69
2022/07/20 06:35:43;;;;;;;7.70;4.70;;;25.70;99.90;;;;;;4917777;29;20233;-69
2022/07/20 06:38:10;;;;;;;9.82;4.55;;;25.70;99.90;;;;;;4917751;29;20206;-70
2022/07/20 06:40:37;;;;;;;7.47;4.45;;;25.60;99.90;;;;;;4917655;29;20232;-69
2022/07/20 06:43:04;;;;;;;7.38;4.47;;;25.60;99.90;;;;;;4917412;29;20316;-69
2022/07/20 06:45:31;;;;;;;6.47;3.95;;;25.50;99.90;;;;;;4917312;29;20213;-70
2022/07/20 06:47:58;;;;;;;5.72;4.05;;;25.30;99.90;;;;;;4917539;29;20245;-70
2022/07/20 06:50:25;;;;;;;7.25;4.30;;;25.20;99.90;;;;;;4917556;29;20209;-68
2022/07/20 06:52:53;;;;;;;7.93;4.18;;;25.10;99.90;;;;;;4917221;29;20582;-68
2022/07/20 06:55:20;;;;;;;6.55;3.72;;;25.20;99.90;;;;;;4916851;29;20240;-68
2022/07/20 06:57:47;;;;;;;5.60;3.83;;;25.40;99.90;;;;;;4917239;29;20694;-68
2022/07/20 07:00:14;;;;;;;7.13;3.60;;;25.70;99.90;;;;;;4917468;29;20210;-68
2022/07/20 07:02:41;;;;;;;6.78;3.78;;;25.80;99.90;;;;;;4917251;29;20301;-69
2022/07/20 07:05:09;;;;;;;7.28;3.78;;;25.90;99.90;;;;;;4917635;29;20591;-69
2022/07/20 07:07:36;;;;;;;7.32;3.53;;;25.80;99.90;;;;;;4917090;29;20219;-68
2022/07/20 07:10:05;;;;;;;5.05;3.22;;;25.60;99.90;;;;;;4917043;29;20260;-69
2022/07/20 07:12:32;;;;;;;7.47;3.70;;;25.50;99.90;;;;;;4916613;29;20240;-69
2022/07/20 07:15:00;;;;;;;5.72;3.50;;;25.30;99.90;;;;;;4916721;29;20214;-69
2022/07/20 07:17:30;;;;;;;6.60;3.22;;;25.20;99.90;;;;;;4916683;29;20206;-69
2022/07/20 07:19:57;;;;;;;4.78;3.05;;;25.00;99.90;;;;;;4916733;29;20668;-69
2022/07/20 07:22:24;;;;;;;7.68;3.30;;;25.00;99.90;;;;;;4916865;29;20226;-68
2022/07/20 07:24:51;;;;;;;8.40;3.30;;;24.90;99.90;;;;;;4916890;29;20219;-68
2022/07/20 07:27:19;;;;;;;5.40;3.30;;;24.90;99.90;;;;;;4916514;29;20213;-69
2022/07/20 07:29:46;;;;;;;5.05;3.05;;;24.90;99.90;;;;;;4917091;29;20297;-69
2022/07/20 07:32:13;;;;;;;5.75;3.13;;;24.80;99.90;;;;;;4916650;29;20252;-70
2022/07/20 07:34:40;;;;;;;4.93;3.20;;;24.80;99.90;;;;;;4916391;29;20246;-70
2022/07/20 07:37:06;;;;;;;5.05;2.95;;;24.80;99.90;;;;;;4912100;29;20236;-70
2022/07/20 07:39:34;;;;;;;6.78;3.10;;;24.80;99.90;;;;;;4915311;29;20211;-73
2022/07/20 07:42:01;;;;;;;5.47;3.00;;;24.80;99.90;;;;;;4915017;29;20321;-71
2022/07/20 07:44:29;;;;;;;3.60;2.55;;;24.80;99.90;;;;;;4914967;29;20209;-72
2022/07/20 07:46:56;;;;;;;6.95;3.30;;;24.90;99.90;;;;;;4912079;29;20209;-74
2022/07/20 07:49:22;;;;;;;5.43;2.85;;;24.90;99.90;;;;;;4914661;29;20243;-73
2022/07/20 07:51:49;;;;;;;5.18;2.78;;;25.10;99.90;;;;;;4914876;29;20236;-70
2022/07/20 07:54:16;;;;;;;5.80;3.30;;;25.20;99.90;;;;;;4915602;29;20220;-70
2022/07/20 07:56:43;;;;;;;6.82;3.42;;;25.90;99.90;;;;;;4915267;29;20233;-69
2022/07/20 07:59:10;;;;;;;7.18;3.13;;;26.90;99.90;;;;;;4915077;29;20229;-70
2022/07/20 08:01:38;;;;;;;7.13;3.30;;;27.40;99.90;;;;;;4915299;29;20712;-70
2022/07/20 08:04:06;;;;;;;6.00;2.75;;;27.10;99.90;;;;;;4915190;29;20213;-70
2022/07/20 08:06:33;;;;;;;4.40;2.75;;;27.00;99.90;;;;;;4914231;29;21894;-69
2022/07/20 08:09:00;;;;;;;4.65;2.80;;;26.80;99.90;;;;;;4915013;29;20205;-70
2022/07/20 08:11:27;;;;;;;5.60;2.90;;;26.70;99.90;;;;;;4914693;29;20226;-71
2022/07/20 08:13:54;;;;;;;4.43;3.08;;;26.60;99.90;;;;;;4914584;29;20214;-73
2022/07/20 08:16:21;;;;;;;6.82;3.00;;;26.10;99.90;;;;;;4914531;29;20233;-74
2022/07/20 08:18:49;;;;;;;4.03;2.65;;;25.80;99.90;;;;;;4915161;29;20209;-75
2022/07/20 08:21:16;;;;;;;5.75;2.90;;;25.50;99.90;;;;;;4914367;29;20230;-80
2022/07/20 08:23:43;;;;;;;5.72;2.95;;;25.40;99.90;;;;;;4914981;29;20316;-75
2022/07/20 08:26:10;;;;;;;6.47;3.10;;;25.20;99.90;;;;;;4914564;29;20572;-75
2022/07/20 08:28:37;;;;;;;4.65;2.80;;;25.10;99.90;;;;;;4915548;29;20217;-74
2022/07/20 08:31:04;;;;;;;5.75;3.33;;;25.10;99.90;;;;;;4918079;29;20551;-73
2022/07/20 08:33:31;;;;;;;6.40;3.55;;;24.70;99.90;;;;;;4918219;29;20302;-71
2022/07/20 08:35:59;;;;;;;6.50;3.00;;;24.70;99.90;;;;;;4917396;29;20247;-75
2022/07/20 08:38:26;;;;;;;6.85;3.33;;;24.70;99.90;;;;;;4917753;29;20269;-73
2022/07/20 08:40:53;;;;;;;5.53;2.97;;;25.00;99.90;;;;;;4918555;29;20213;-73
2022/07/20 08:43:20;;;;;;;5.32;3.10;;;25.30;99.90;;;;;;4919145;29;20210;-73
2022/07/20 08:45:48;;;;;;;4.10;3.17;;;25.70;99.90;;;;;;4919173;29;20220;-72
2022/07/20 08:48:18;;;;;;;7.10;3.10;;;25.70;99.90;;;;;;4918835;29;20737;-72
2022/07/20 08:50:45;;;;;;;6.20;3.38;;;25.50;99.90;;;;;;4919304;29;20210;-72
2022/07/20 08:53:13;;;;;;;6.50;3.13;;;25.20;99.90;;;;;;4919469;29;20688;-72
2022/07/20 08:55:40;;;;;;;5.90;3.45;;;24.80;99.90;;;;;;4919232;29;20328;-72
2022/07/20 08:58:07;;;;;;;5.43;3.63;;;24.70;99.90;;;;;;4918837;29;20297;-72
2022/07/20 09:00:34;;;;;;;5.95;3.65;;;24.70;99.90;;;;;;4919204;29;20244;-74
2022/07/20 09:03:02;;;;;;;5.65;3.65;;;24.70;99.90;;;;;;4919247;29;20704;-73
2022/07/20 09:05:31;;;;;;;5.43;3.55;;;24.60;99.90;;;;;;4919190;29;20242;-73
2022/07/20 09:07:59;;;;;;;7.47;3.42;;;24.90;99.90;;;;;;4919071;29;20214;-73
2022/07/20 09:10:29;;;;;;;5.70;3.42;;;24.90;99.90;;;;;;4918927;29;20209;-73
2022/07/20 09:12:59;;;;;;;10.05;3.60;;;25.00;99.90;;;;;;4918682;29;20317;-72
2022/07/20 09:15:29;;;;;;;5.97;3.63;;;24.90;99.90;;;;;;4918716;29;20234;-72
2022/07/20 09:18:14;;;;;;;5.50;3.30;;;24.80;99.90;;;;;;4918711;29;20209;-71
2022/07/20 09:20:44;;;;;;;7.05;3.60;;;24.80;99.90;;;;;;4918998;29;20310;-70
2022/07/20 09:23:12;;;;;;;6.18;3.80;;;24.40;99.90;;;;;;4919041;29;20233;-70
2022/07/20 09:25:53;;;;;;;7.15;3.70;;;23.90;99.90;;;;;;4918354;29;20495;-71
2022/07/20 09:28:21;;;;;;;8.80;4.30;;;23.40;99.90;;;;;;4918591;29;20220;-70
2022/07/20 09:30:53;;;;;;;7.10;3.95;;;23.10;99.90;;;;;;4918617;29;20210;-70
2022/07/20 09:33:28;;;;;;;7.35;3.80;;;22.90;99.90;;;;;;4918187;29;20257;-70
2022/07/20 09:35:56;;;;;;;7.75;4.72;;;22.90;99.90;;;;;;4918386;29;20233;-70
2022/07/20 09:38:32;;;;;;;8.52;4.13;;;22.60;99.90;;;;;;4918249;29;20210;-70
2022/07/20 09:41:03;;;;;;;8.13;4.60;;;22.50;99.90;;;;;;4918578;29;20264;-71
2022/07/20 09:43:32;;;;;;;7.53;4.47;;;22.50;99.90;;;;;;4918784;29;20611;-71
2022/07/20 09:46:14;;;;;;;7.07;4.43;;;22.60;99.90;;;;;;4918352;29;20213;-72
2022/07/20 09:48:43;;;;;;;9.90;5.18;;;22.60;99.90;;;;;;4899440;29;20218;-71
2022/07/20 09:51:21;;;;;;;7.25;4.57;;;22.70;99.90;;;;;;4899345;29;20621;-69
2022/07/20 09:53:49;;;;;;;6.15;4.07;;;22.60;99.90;;;;;;4904416;29;20217;-68
2022/07/20 09:56:19;;;;;;;6.93;4.60;;;22.80;99.90;;;;;;4918172;29;20230;-69
2022/07/20 09:58:49;;;;;;;9.40;4.32;;;23.10;99.90;;;;;;4917991;29;20210;-69
2022/07/20 10:01:19;;;;;;;7.20;4.00;;;23.60;99.90;;;;;;4917852;29;20243;-70
2022/07/20 10:03:48;;;;;;;7.45;4.20;;;24.10;99.90;;;;;;4918327;29;20265;-70
2022/07/20 10:06:16;;;;;;;8.82;4.10;;;24.50;99.90;;;;;;4918246;29;20217;-68
2022/07/20 10:08:42;;;;;;;9.05;4.72;;;24.90;99.90;;;;;;4917879;29;20568;-69
2022/07/20 10:11:09;;;;;;;8.40;4.25;;;25.00;99.90;;;;;;4917826;29;20230;-69
2022/07/20 10:13:39;;;;;;;7.80;4.55;;;25.00;99.90;;;;;;4918210;29;20402;-69
2022/07/20 10:16:15;;;;;;;7.97;4.72;;;25.20;99.90;;;;;;4918277;29;20236;-69
2022/07/20 10:18:44;;;;;;;8.27;4.55;;;25.60;99.90;;;;;;4918318;29;20220;-68
2022/07/20 10:21:36;;;;;;;6.68;3.88;;;25.80;99.90;;;;;;4918154;29;20225;-69
2022/07/20 10:24:25;;;;;;;6.10;4.00;;;25.80;99.90;;;;;;4908175;29;20213;-69
2022/07/20 10:26:56;;;;;;;6.80;4.13;;;25.90;99.90;;;;;;4917636;29;20755;-70
2022/07/20 10:29:35;;;;;;;6.90;4.00;;;25.70;99.90;;;;;;4917854;29;20628;-68
2022/07/20 10:32:14;;;;;;;6.78;3.83;;;25.70;99.90;;;;;;4917941;29;20229;-70
2022/07/20 10:34:43;;;;;;;7.53;4.10;;;26.10;99.90;;;;;;4917780;29;20209;-69
2022/07/20 10:37:36;;;;;;;10.00;3.45;;;26.50;99.90;;;;;;4917979;29;20245;-70
2022/07/20 10:40:10;;;;;;;4.35;3.10;;;26.50;99.90;;;;;;4908609;29;20550;-69
2022/07/20 10:42:39;;;;;;;5.75;2.90;;;26.50;99.90;;;;;;4917401;29;20315;-69
2022/07/20 10:45:32;;;;;;;4.38;3.20;;;26.70;99.90;;;;;;4917603;29;20206;-70
2022/07/20 10:48:20;;;;;;;5.35;2.78;;;26.40;99.90;;;;;;4912387;29;20617;-70
2022/07/20 10:50:50;;;;;;;4.05;2.95;;;26.40;99.90;;;;;;4916628;29;20210;-70
2022/07/20 10:53:35;;;;;;;4.07;2.53;;;26.50;99.90;;;;;;4917109;29;20224;-69
2022/07/20 10:56:03;;;;;;;6.10;2.83;;;26.60;99.90;;;;;;4917590;29;20209;-69
2022/07/20 10:58:33;;;;;;;3.88;2.53;;;26.80;99.90;;;;;;4917268;29;20305;-69
2022/07/20 11:01:03;;;;;;;3.90;2.70;;;27.10;99.90;;;;;;4917534;29;20289;-71
2022/07/20 11:03:32;;;;;;;5.22;3.03;;;27.30;99.90;;;;;;4917423;29;20601;-70
2022/07/20 11:06:05;;;;;;;6.30;2.90;;;27.20;99.90;;;;;;4917625;29;20630;-70
2022/07/20 11:08:32;;;;;;;3.63;2.60;;;27.20;99.90;;;;;;4917340;29;20237;-70
2022/07/20 11:11:01;;;;;;;5.15;3.10;;;27.30;99.90;;;;;;4916587;29;20282;-70
2022/07/20 11:13:28;;;;;;;6.68;3.05;;;27.20;99.90;;;;;;4917368;29;20209;-69
2022/07/20 11:15:58;;;;;;;4.13;2.22;;;27.10;99.90;;;;;;4917069;29;20210;-69
2022/07/20 11:18:28;;;;;;;6.10;2.60;;;27.10;99.90;;;;;;4917025;29;20241;-69
2022/07/20 11:21:00;;;;;;;4.88;2.88;;;27.30;99.90;;;;;;4917465;29;20240;-69
2022/07/20 11:23:37;;;;;;;4.05;3.00;;;27.40;99.90;;;;;;4917316;29;20209;-69
2022/07/20 11:26:04;;;;;;;4.75;2.80;;;27.50;99.90;;;;;;4916950;29;20320;-68
2022/07/20 11:28:33;;;;;;;5.40;2.75;;;27.90;99.90;;;;;;4917056;29;20277;-68
2022/07/20 11:31:02;;;;;;;4.97;3.00;;;28.10;99.90;;;;;;4916919;29;20210;-68
2022/07/20 11:33:32;;;;;;;4.40;2.60;;;28.40;99.90;;;;;;4916871;29;20578;-69
2022/07/20 11:36:01;;;;;;;4.25;2.78;;;28.50;99.90;;;;;;4916695;29;20668;-69
2022/07/20 11:38:36;;;;;;;13.27;6.80;;;28.10;99.90;;;;;;4916798;29;20329;-68
2022/07/20 11:41:05;;;;;;;5.60;2.85;;;27.90;99.90;;;;;;4916718;29;20305;-69
2022/07/20 11:43:32;;;;;;;6.20;3.00;;;27.90;99.90;;;;;;4916781;29;20229;-69
2022/07/20 11:46:10;;;;;;;4.18;2.50;;;28.10;99.90;;;;;;4917085;29;20640;-69
2022/07/20 11:48:39;;;;;;;5.75;2.85;;;28.20;99.90;;;;;;4916619;29;20224;-69
2022/07/20 11:51:06;;;;;;;4.82;2.72;;;27.80;99.90;;;;;;4916580;29;20296;-70
2022/07/20 11:53:36;;;;;;;4.82;2.83;;;27.80;99.90;;;;;;4916629;29;20221;-69
2022/07/20 11:56:06;;;;;;;5.05;2.90;;;27.80;99.90;;;;;;4916627;29;20274;-69
2022/07/20 11:58:35;;;;;;;3.42;2.70;;;27.70;99.90;;;;;;4916753;29;20233;-69
2022/07/20 12:01:04;;;;;;;5.18;3.20;;;27.70;99.90;;;;;;4916446;29;20216;-69
2022/07/20 12:03:35;;;;;;;6.20;3.20;;;27.80;99.90;;;;;;4919814;29;20244;-69
2022/07/20 12:06:06;;;;;;;3.97;3.03;;;27.90;99.90;;;;;;4920404;29;20240;-69
2022/07/20 12:08:34;;;;;;;3.47;2.72;;;28.00;99.90;;;;;;4920510;29;20217;-69
2022/07/20 12:11:01;;;;;;;4.63;3.03;;;28.00;99.90;;;;;;4920527;29;20224;-69
2022/07/20 12:13:29;;;;;;;4.80;3.08;;;28.10;99.90;;;;;;4920549;29;20304;-69
2022/07/20 12:16:01;;;;;;;4.13;2.97;;;28.30;99.90;;;;;;4920152;29;20237;-69
2022/07/20 12:18:39;;;;;;;5.53;3.30;;;28.50;99.90;;;;;;4920045;29;20248;-69
2022/07/20 12:21:10;;;;;;;5.70;3.17;;;28.70;99.90;;;;;;4920226;29;20215;-69
2022/07/20 12:23:38;;;;;;;5.45;3.45;;;28.50;99.90;;;;;;4920429;29;20210;-69
2022/07/20 12:26:21;;;;;;;4.68;3.15;;;28.30;99.90;;;;;;4920220;29;20221;-69
2022/07/20 12:28:49;;;;;;;4.55;3.15;;;28.10;99.90;;;;;;4920224;29;20677;-68
2022/07/20 12:31:17;;;;;;;6.97;3.47;;;27.90;99.90;;;;;;4919900;29;20230;-69
2022/07/20 12:34:04;;;;;;;6.03;3.83;;;27.90;99.90;;;;;;4920302;29;20304;-69
2022/07/20 12:36:40;;;;;;;6.68;3.47;;;27.60;99.90;;;;;;4920077;29;20214;-69
2022/07/20 12:39:09;;;;;;;5.57;3.25;;;27.20;99.90;;;;;;4919894;29;20212;-69
2022/07/20 12:41:36;;;;;;;5.15;3.22;;;27.20;99.90;;;;;;4919554;29;20730;-70
2022/07/20 12:44:26;;;;;;;6.70;3.67;;;27.00;99.90;;;;;;4919684;29;20206;-68
2022/07/20 12:46:53;;;;;;;7.22;3.53;;;26.80;99.90;;;;;;4919895;29;20309;-69
2022/07/20 12:49:21;;;;;;;6.20;3.42;;;26.70;99.90;;;;;;4919722;29;20216;-69
2022/07/20 12:51:50;;;;;;;5.10;3.13;;;26.40;99.90;;;;;;4919609;29;20285;-69
2022/07/20 12:54:18;;;;;;;6.10;3.95;;;26.30;99.90;;;;;;4919759;29;20210;-70
2022/07/20 12:56:45;;;;;;;6.18;3.10;;;26.30;99.90;;;;;;4919819;29;20214;-70
2022/07/20 12:59:13;;;;;;;5.18;3.60;;;25.90;99.90;;;;;;4919918;29;20216;-70
2022/07/20 13:01:41;;;;;;;6.45;3.22;;;25.80;99.90;;;;;;4919715;29;20595;-69
2022/07/20 13:04:09;;;;;;;6.32;3.95;;;25.50;99.90;;;;;;4919512;29;20209;-69
2022/07/20 13:06:36;;;;;;;6.00;3.30;;;25.40;99.90;;;;;;4919468;29;20695;-69
2022/07/20 13:09:05;;;;;;;6.13;3.80;;;25.20;99.90;;;;;;4918921;29;20582;-69
2022/07/20 13:11:31;;;;;;;7.13;4.03;;;25.10;99.90;;;;;;4918738;29;20232;-69
2022/07/20 13:13:58;;;;;;;7.85;4.05;;;25.10;99.90;;;;;;4918524;29;20210;-69
2022/07/20 13:16:25;;;;;;;8.10;4.07;;;25.10;99.90;;;;;;4918631;29;20553;-68
2022/07/20 13:18:52;;;;;;;6.15;4.00;;;25.20;99.90;;;;;;4910933;29;20263;-70
2022/07/20 13:21:19;;;;;;;6.90;3.97;;;25.30;99.90;;;;;;4917144;29;20244;-73
2022/07/20 13:23:46;;;;;;;6.57;3.75;;;25.50;99.90;;;;;;4918014;29;20201;-76
2022/07/20 13:26:14;;;;;;;6.60;4.20;;;25.50;99.90;;;;;;4916979;29;20751;-70
2022/07/20 13:28:41;;;;;;;5.72;4.13;;;25.60;99.90;;;;;;4917354;29;20214;-74
2022/07/20 13:31:08;;;;;;;5.93;3.92;;;25.70;99.90;;;;;;4917963;29;20244;-74
2022/07/20 13:33:35;;;;;;;8.45;4.38;;;25.70;99.90;;;;;;4917297;29;20211;-74
2022/07/20 13:36:01;;;;;;;6.47;3.72;;;25.60;99.90;;;;;;4917566;29;20201;-71
2022/07/20 13:38:28;;;;;;;5.95;3.92;;;25.60;99.90;;;;;;4917651;29;20662;-76
2022/07/20 13:40:56;;;;;;;6.03;4.03;;;25.90;99.90;;;;;;4916941;29;20676;-70
2022/07/20 13:43:24;;;;;;;7.65;4.35;;;25.90;99.90;;;;;;4917534;29;20210;-70
2022/07/20 13:45:51;;;;;;;6.18;3.80;;;25.80;99.90;;;;;;4917607;29;20210;-74
2022/07/20 13:48:18;;;;;;;5.72;3.83;;;25.90;99.90;;;;;;4916839;29;20301;-73
2022/07/20 13:50:48;;;;;;;5.15;3.75;;;25.80;99.90;;;;;;4917421;29;20216;-71
2022/07/20 13:53:15;;;;;;;6.85;3.95;;;26.00;99.90;;;;;;4917577;29;20284;-73
2022/07/20 13:55:41;;;;;;;5.65;3.60;;;26.20;99.90;;;;;;4916822;29;20702;-69
2022/07/20 13:58:09;;;;;;;8.25;4.18;;;26.10;99.90;;;;;;4917037;29;20241;-70
2022/07/20 14:00:37;;;;;;;6.85;3.65;;;26.10;99.90;;;;;;4917383;29;20301;-79
2022/07/20 14:03:04;;;;;;;7.15;4.22;;;26.20;99.90;;;;;;4916755;29;20237;-70
2022/07/20 14:05:31;;;;;;;5.28;3.65;;;26.20;99.90;;;;;;4917128;29;20325;-72
2022/07/20 14:07:58;;;;;;;5.97;3.92;;;26.20;99.90;;;;;;4916933;29;20220;-70
2022/07/20 14:10:25;;;;;;;7.20;4.35;;;26.30;99.90;;;;;;4916951;29;20305;-74
2022/07/20 14:12:52;;;;;;;6.72;4.00;;;26.60;99.90;;;;;;4916810;29;20222;-71
2022/07/20 14:15:19;;;;;;;5.15;3.60;;;26.70;99.90;;;;;;4917829;29;20237;-72
2022/07/20 14:17:47;;;;;;;5.22;3.67;;;26.80;99.90;;;;;;4917988;29;20251;-73
2022/07/20 14:20:14;;;;;;;5.13;3.70;;;26.80;99.90;;;;;;4918327;29;20214;-72
2022/07/20 14:22:41;;;;;;;7.05;4.10;;;26.90;99.90;;;;;;4917895;29;20638;-73
2022/07/20 14:25:09;;;;;;;6.43;4.00;;;26.80;99.90;;;;;;4917820;29;20581;-72
2022/07/20 14:27:37;;;;;;;6.28;4.40;;;26.70;99.90;;;;;;4917840;29;20209;-72
2022/07/20 14:30:05;;;;;;;7.68;4.50;;;26.50;99.90;;;;;;4917983;29;20206;-72
2022/07/20 14:32:32;;;;;;;5.50;4.10;;;26.50;99.90;;;;;;4917763;29;20319;-73
2022/07/20 14:35:01;;;;;;;6.68;4.10;;;26.40;99.90;;;;;;4918139;29;20214;-73
2022/07/20 14:37:28;;;;;;;5.22;3.88;;;26.50;99.90;;;;;;4917949;29;20228;-73
2022/07/20 14:39:54;;;;;;;6.38;4.22;;;26.50;99.90;;;;;;4917775;29;20209;-72
2022/07/20 14:42:21;;;;;;;5.53;3.90;;;26.30;99.90;;;;;;4917230;29;20252;-71
2022/07/20 14:44:48;;;;;;;6.88;3.85;;;26.20;99.90;;;;;;4917595;29;20215;-68
2022/07/20 14:47:15;;;;;;;5.65;4.18;;;26.10;99.90;;;;;;4917586;29;20210;-68
2022/07/20 14:49:42;;;;;;;6.60;3.50;;;25.90;99.90;;;;;;4917712;29;20660;-69
2022/07/20 14:52:10;;;;;;;6.63;4.13;;;25.70;99.90;;;;;;4917033;29;20312;-68
2022/07/20 14:54:37;;;;;;;7.68;4.30;;;25.50;99.90;;;;;;4917304;29;20210;-67
2022/07/20 14:57:04;;;;;;;5.50;3.65;;;25.40;99.90;;;;;;4917002;29;20219;-68
2022/07/20 14:59:31;;;;;;;7.07;4.55;;;25.30;99.90;;;;;;4917497;29;20272;-68
2022/07/20 15:01:58;;;;;;;7.45;4.28;;;25.10;99.90;;;;;;4917343;29;20585;-67
2022/07/20 15:04:24;;;;;;;7.03;4.47;;;24.90;99.90;;;;;;4916550;29;20221;-67
2022/07/20 15:06:51;;;;;;;8.18;4.15;;;24.70;99.90;;;;;;4916720;29;20304;-68
2022/07/20 15:09:20;;;;;;;8.80;4.60;;;24.70;99.90;;;;;;4916398;29;20217;-68
2022/07/20 15:11:48;;;;;;;7.18;4.60;;;24.70;99.90;;;;;;4916832;29;20261;-67
2022/07/20 15:14:15;;;;;;;6.47;4.30;;;24.80;99.90;;;;;;4917274;29;20213;-67
2022/07/20 15:16:42;;;;;;;6.50;4.68;;;24.80;99.90;;;;;;4917123;29;20213;-68
2022/07/20 15:19:09;;;;;;;6.07;4.25;;;24.80;99.90;;;;;;4916974;29;20336;-68
2022/07/20 15:21:36;;;;;;;6.40;3.83;;;24.80;99.90;;;;;;4916448;29;20247;-67
2022/07/20 15:24:03;;;;;;;6.93;4.40;;;24.90;99.90;;;;;;4916665;29;20272;-68
2022/07/20 15:26:32;;;;;;;5.88;4.40;;;24.90;99.90;;;;;;4916476;29;20221;-68
2022/07/20 15:28:59;;;;;;;6.72;4.60;;;24.80;99.90;;;;;;4916783;29;20589;-68
2022/07/20 15:31:26;;;;;;;6.68;4.60;;;24.80;99.90;;;;;;4916871;29;20236;-68
2022/07/20 15:33:53;;;;;;;5.53;3.90;;;24.80;99.90;;;;;;4916869;29;20580;-67
2022/07/20 15:36:20;;;;;;;9.23;4.43;;;24.90;99.90;;;;;;4916068;29;20673;-68
2022/07/20 15:38:47;;;;;;;7.35;4.50;;;24.90;99.90;;;;;;4916193;29;20233;-68
2022/07/20 15:41:14;;;;;;;6.43;4.38;;;24.80;99.90;;;;;;4916654;29;20628;-67
2022/07/20 15:43:42;;;;;;;6.95;4.50;;;24.80;99.90;;;;;;4916507;29;20216;-67
2022/07/20 15:46:14;;;;;;;8.77;4.47;;;24.80;99.90;;;;;;4916686;29;20210;-68
2022/07/20 15:48:43;;;;;;;7.25;4.82;;;24.90;99.90;;;;;;4916514;29;20596;-68
2022/07/20 15:51:10;;;;;;;6.40;4.63;;;24.80;99.90;;;;;;4916392;29;20221;-68
2022/07/20 15:53:37;;;;;;;6.82;4.70;;;24.90;99.90;;;;;;4916511;29;20304;-68
2022/07/20 15:56:04;;;;;;;6.60;4.32;;;24.90;99.90;;;;;;4916250;29;20220;-68
2022/07/20 15:58:31;;;;;;;5.03;4.22;;;24.90;99.90;;;;;;4916386;29;20244;-69
2022/07/20 16:00:59;;;;;;;9.43;4.90;;;25.00;99.90;;;;;;4916796;29;20212;-67
2022/07/20 16:03:26;;;;;;;7.15;5.03;;;24.90;99.90;;;;;;4916704;29;20244;-68
2022/07/20 16:05:53;;;;;;;9.43;5.15;;;24.80;99.90;;;;;;4916358;29;20249;-67
2022/07/20 16:08:20;;;;;;;7.03;4.80;;;24.60;99.90;;;;;;4916887;29;20210;-68
2022/07/20 16:10:47;;;;;;;8.70;4.65;;;24.50;99.90;;;;;;4916653;29;20209;-68
2022/07/20 16:13:14;;;;;;;7.63;5.15;;;24.50;99.90;;;;;;4916507;29;20209;-68
2022/07/20 16:15:41;;;;;;;11.32;4.93;;;24.40;99.90;;;;;;4916704;29;20302;-68
2022/07/20 16:18:09;;;;;;;7.93;5.43;;;24.30;99.90;;;;;;4916597;29;20225;-68
2022/07/20 16:20:36;;;;;;;6.05;4.38;;;24.30;99.90;;;;;;4916538;29;20214;-68
2022/07/20 16:23:03;;;;;;;9.55;5.57;;;24.30;99.90;;;;;;4916424;29;20320;-69
2022/07/20 16:25:30;;;;;;;10.05;5.25;;;24.20;99.90;;;;;;4916325;29;20240;-69
2022/07/20 16:27:57;;;;;;;9.55;5.20;;;24.00;99.90;;;;;;4916485;29;20220;-68
2022/07/20 16:30:24;;;;;;;8.00;5.70;;;24.00;99.90;;;;;;4916133;29;20313;-67
2022/07/20 16:32:51;;;;;;;9.15;5.18;;;24.00;99.90;;;;;;4915988;29;20654;-68
2022/07/20 16:35:19;;;;;;;9.25;5.47;;;24.10;99.90;;;;;;4916503;29;20237;-68
2022/07/20 16:37:46;;;;;;;6.63;5.00;;;24.00;99.90;;;;;;4916543;29;20213;-68
2022/07/20 16:40:13;;;;;;;7.88;5.20;;;24.00;99.90;;;;;;4916453;29;20217;-67
2022/07/20 16:42:40;;;;;;;9.57;5.10;;;23.90;99.90;;;;;;4915914;29;20229;-68
2022/07/20 16:45:07;;;;;;;8.45;5.55;;;23.80;99.90;;;;;;4916147;29;20669;-67
2022/07/20 16:47:34;;;;;;;7.25;4.90;;;23.70;99.90;;;;;;4916030;29;20727;-68
2022/07/20 16:50:02;;;;;;;7.90;5.32;;;23.70;99.90;;;;;;4918258;29;20712;-67
2022/07/20 16:52:30;;;;;;;7.18;5.07;;;23.60;99.90;;;;;;4919759;29;20233;-68
2022/07/20 16:54:57;;;;;;;8.98;5.50;;;23.50;99.90;;;;;;4919761;29;20245;-67
2022/07/20 16:57:24;;;;;;;8.63;5.75;;;23.40;99.90;;;;;;4919574;29;20684;-68
2022/07/20 16:59:51;;;;;;;11.02;5.80;;;23.40;99.90;;;;;;4919257;29;20600;-74
2022/07/20 17:02:18;;;;;;;8.65;5.38;;;23.30;99.90;;;;;;4915508;29;20697;-72
2022/07/20 17:04:45;;;;;;;9.30;5.63;;;23.30;99.90;;;;;;4918612;29;20216;-71
2022/07/20 17:07:12;;;;;;;8.68;5.78;;;23.30;99.90;;;;;;4918274;29;20546;-71
2022/07/20 17:09:40;;;;;;;7.45;5.57;;;23.30;99.90;;;;;;4917972;29;20209;-70
2022/07/20 17:12:08;;;;;;;8.43;5.53;;;23.40;99.90;;;;;;4917798;29;20320;-70
2022/07/20 17:14:35;;;;;;;7.57;5.68;;;23.40;99.90;;;;;;4917942;29;20210;-69
2022/07/20 17:17:02;;;;;;;7.78;5.10;;;23.40;99.90;;;;;;4917649;29;20209;-69
2022/07/20 17:19:28;;;;;;;8.93;5.93;;;23.20;99.90;;;;;;4918318;29;20742;-70
2022/07/20 17:21:57;;;;;;;8.40;5.60;;;23.20;99.90;;;;;;4918578;29;20238;-69
2022/07/20 17:24:24;;;;;;;9.18;6.25;;;23.10;99.90;;;;;;4917379;29;20221;-68
2022/07/20 17:26:53;;;;;;;10.35;6.00;;;23.10;99.90;;;;;;4917818;29;20221;-68
2022/07/20 17:29:20;;;;;;;10.80;6.25;;;23.10;99.90;;;;;;4917743;29;20658;-68
2022/07/20 17:31:47;;;;;;;8.60;6.13;;;23.10;99.90;;;;;;4917162;29;20233;-70
2022/07/20 17:34:14;;;;;;;9.13;6.05;;;22.90;99.90;;;;;;4917968;29;20213;-69
2022/07/20 17:36:42;;;;;;;9.50;6.45;;;22.80;99.90;;;;;;4917950;29;20202;-68
2022/07/20 17:39:09;;;;;;;8.30;5.90;;;22.80;99.90;;;;;;4918700;29;20732;-67
2022/07/20 17:41:36;;;;;;;9.80;5.80;;;22.70;99.90;;;;;;4918504;29;20229;-67
2022/07/20 17:44:05;;;;;;;9.88;6.38;;;22.70;99.90;;;;;;4918944;29;20278;-68
2022/07/20 17:46:32;;;;;;;9.32;6.00;;;22.50;99.90;;;;;;4918653;29;20673;-68
2022/07/20 17:48:59;;;;;;;10.60;6.65;;;22.40;99.90;;;;;;4918588;29;20210;-68
2022/07/20 17:51:26;;;;;;;8.60;5.80;;;22.40;99.90;;;;;;4918426;29;20229;-68
2022/07/20 17:53:53;;;;;;;9.90;6.28;;;22.40;99.90;;;;;;4918559;29;20214;-68
2022/07/20 17:56:20;;;;;;;10.65;6.32;;;22.20;99.90;;;;;;4918404;29;20665;-68
2022/07/20 17:58:46;;;;;;;8.88;5.68;;;22.10;99.90;;;;;;4918692;29;20628;-68
2022/07/20 18:01:15;;;;;;;8.05;5.78;;;22.10;99.90;;;;;;4917875;29;20232;-68
2022/07/20 18:03:42;;;;;;;8.10;5.78;;;22.00;99.90;;;;;;4918204;29;20221;-68
2022/07/20 18:06:10;;;;;;;10.85;6.18;;;21.80;99.90;;;;;;4918169;29;20218;-69
2022/07/20 18:08:37;;;;;;;8.70;6.40;;;21.80;99.90;;;;;;4918303;29;20221;-68
2022/07/20 18:11:05;;;;;;;10.57;6.63;;;21.80;99.90;;;;;;4918077;29;20212;-68
2022/07/20 18:13:31;;;;;;;6.93;4.68;;;21.70;99.90;;;;;;4918042;29;20210;-68
2022/07/20 18:15:58;;;;;;;5.75;4.30;;;21.60;99.90;;;;;;4917889;29;20216;-68
2022/07/20 18:18:26;;;;;;;8.32;4.90;;;21.50;99.90;;;;;;4917514;29;20209;-67